createdAt,value
2018-06-09T00:00:21.691Z,22.87
2018-06-09T00:00:52.927Z,22.80
2018-06-09T00:01:24.155Z,21.93
2018-06-09T00:01:55.364Z,22.60
2018-06-09T00:02:26.530Z,22.40
2018-06-09T00:02:57.704Z,22.37
2018-06-09T00:03:28.877Z,23.23
2018-06-09T00:04:00.104Z,23.70
2018-06-09T00:04:31.268Z,23.47
2018-06-09T00:05:02.495Z,23.40
2018-06-09T00:05:33.685Z,25.10
2018-06-09T00:06:04.914Z,23.07
2018-06-09T00:06:36.097Z,23.00
2018-06-09T00:07:07.330Z,23.13
2018-06-09T00:08:15.115Z,24.50
2018-06-09T00:08:46.345Z,23.83
2018-06-09T00:09:17.533Z,24.67
2018-06-09T00:09:48.704Z,23.13
2018-06-09T00:10:19.872Z,24.03
2018-06-09T00:10:51.048Z,23.37
2018-06-09T00:11:22.225Z,24.20
2018-06-09T00:11:53.408Z,25.13
2018-06-09T00:12:24.589Z,24.33
2018-06-09T00:12:55.773Z,24.17
2018-06-09T00:13:27.033Z,24.70
2018-06-09T00:13:58.277Z,25.30
2018-06-09T00:14:29.628Z,24.30
2018-06-09T00:15:00.804Z,24.27
2018-06-09T00:15:32.037Z,24.40
2018-06-09T00:16:03.301Z,25.07
2018-06-09T00:16:34.492Z,24.07
2018-06-09T00:17:05.677Z,23.27
2018-06-09T00:17:36.939Z,23.93
2018-06-09T00:18:08.163Z,24.17
2018-06-09T00:18:39.404Z,22.63
2018-06-09T00:19:10.580Z,24.20
2018-06-09T00:19:41.759Z,25.70
2018-06-09T00:20:12.972Z,25.47
2018-06-09T00:20:44.238Z,24.90
2018-06-09T00:21:15.472Z,25.13
2018-06-09T00:21:46.703Z,25.33
2018-06-09T00:22:17.879Z,24.70
2018-06-09T00:22:49.052Z,25.33
2018-06-09T00:23:20.322Z,25.20
2018-06-09T00:23:51.557Z,24.33
2018-06-09T00:24:22.926Z,24.47
2018-06-09T00:24:54.113Z,25.40
2018-06-09T00:25:25.289Z,24.40
2018-06-09T00:25:56.501Z,23.07
2018-06-09T00:26:27.834Z,24.80
2018-06-09T00:26:59.080Z,24.20
2018-06-09T00:27:30.366Z,24.17
2018-06-09T00:28:01.557Z,25.47
2018-06-09T00:28:32.736Z,24.17
2018-06-09T00:29:03.957Z,23.73
2018-06-09T00:29:35.140Z,25.10
2018-06-09T00:30:06.371Z,25.03
2018-06-09T00:30:37.604Z,24.23
2018-06-09T00:31:08.857Z,24.80
2018-06-09T00:31:40.044Z,24.57
2018-06-09T00:32:11.225Z,25.67
2018-06-09T00:32:42.523Z,24.47
2018-06-09T00:33:13.704Z,24.63
2018-06-09T00:33:44.917Z,24.93
2018-06-09T00:34:16.141Z,25.50
2018-06-09T00:34:47.384Z,24.87
2018-06-09T00:35:18.572Z,24.67
2018-06-09T00:35:49.809Z,24.17
2018-06-09T00:36:20.976Z,24.40
2018-06-09T00:36:52.259Z,24.23
2018-06-09T00:37:23.445Z,24.97
2018-06-09T00:37:54.819Z,26.00
2018-06-09T00:38:26.086Z,24.67
2018-06-09T00:38:57.321Z,24.43
2018-06-09T00:39:28.500Z,23.60
2018-06-09T00:39:59.756Z,24.67
2018-06-09T00:40:30.934Z,24.20
2018-06-09T00:41:02.125Z,23.53
2018-06-09T00:41:33.463Z,23.57
2018-06-09T00:42:04.654Z,24.33
2018-06-09T00:42:35.872Z,24.30
2018-06-09T00:43:07.090Z,25.30
2018-06-09T00:43:38.264Z,24.53
2018-06-09T00:44:09.430Z,24.30
2018-06-09T00:44:40.605Z,24.20
2018-06-09T00:45:11.772Z,24.80
2018-06-09T00:45:43.050Z,24.57
2018-06-09T00:46:14.232Z,25.53
2018-06-09T00:46:45.437Z,24.53
2018-06-09T00:47:16.608Z,25.63
2018-06-09T00:47:47.780Z,25.13
2018-06-09T00:48:19.061Z,25.43
2018-06-09T00:48:50.247Z,25.47
2018-06-09T00:49:21.484Z,25.60
2018-06-09T00:49:52.768Z,24.47
2018-06-09T00:50:23.961Z,24.97
2018-06-09T00:50:56.042Z,25.33
2018-06-09T00:51:27.274Z,24.47
2018-06-09T00:51:59.067Z,23.63
2018-06-09T00:52:30.322Z,22.80
2018-06-09T00:53:01.497Z,24.13
2018-06-09T00:53:32.725Z,24.17
2018-06-09T00:54:03.916Z,24.20
2018-06-09T00:54:35.145Z,24.13
2018-06-09T00:55:06.317Z,23.77
2018-06-09T00:55:37.874Z,23.40
2018-06-09T00:56:09.098Z,23.67
2018-06-09T00:56:40.319Z,23.40
2018-06-09T00:57:11.516Z,24.70
2018-06-09T00:57:42.751Z,23.07
2018-06-09T00:58:14.045Z,25.33
2018-06-09T00:58:46.107Z,24.87
2018-06-09T00:59:17.288Z,23.53
2018-06-09T00:59:48.460Z,24.87
2018-06-09T01:00:19.645Z,23.70
2018-06-09T01:00:50.864Z,24.77
2018-06-09T01:01:22.041Z,24.57
2018-06-09T01:01:53.220Z,24.47
2018-06-09T01:02:24.408Z,26.43
2018-06-09T01:02:55.633Z,25.50
2018-06-09T01:03:26.857Z,25.20
2018-06-09T01:03:58.089Z,25.77
2018-06-09T01:04:29.501Z,26.40
2018-06-09T01:05:00.684Z,25.37
2018-06-09T01:05:31.917Z,24.37
2018-06-09T01:06:03.162Z,24.27
2018-06-09T01:06:34.336Z,23.87
2018-06-09T01:07:05.510Z,25.07
2018-06-09T01:07:36.726Z,24.43
2018-06-09T01:08:07.909Z,25.23
2018-06-09T01:08:39.129Z,24.63
2018-06-09T01:09:10.369Z,24.97
2018-06-09T01:09:41.601Z,25.07
2018-06-09T01:10:12.825Z,25.95
2018-06-09T01:10:44.181Z,24.90
2018-06-09T01:11:15.386Z,24.27
2018-06-09T01:11:46.564Z,25.47
2018-06-09T01:12:17.742Z,24.63
2018-06-09T01:12:48.974Z,25.40
2018-06-09T01:13:20.200Z,26.00
2018-06-09T01:13:51.430Z,25.83
2018-06-09T01:14:22.896Z,25.13
2018-06-09T01:14:54.084Z,24.77
2018-06-09T01:15:25.253Z,25.90
2018-06-09T01:15:56.472Z,26.37
2018-06-09T01:16:27.692Z,25.30
2018-06-09T01:16:58.913Z,25.93
2018-06-09T01:17:30.194Z,25.82
2018-06-09T01:18:01.384Z,25.60
2018-06-09T01:18:32.580Z,25.03
2018-06-09T01:19:03.805Z,25.37
2018-06-09T01:19:34.989Z,26.00
2018-06-09T01:20:06.808Z,25.90
2018-06-09T01:20:38.028Z,25.93
2018-06-09T01:21:09.276Z,25.48
2018-06-09T01:21:40.460Z,26.23
2018-06-09T01:22:11.686Z,25.73
2018-06-09T01:22:42.869Z,24.73
2018-06-09T01:23:14.294Z,25.37
2018-06-09T01:23:45.500Z,25.33
2018-06-09T01:24:17.721Z,25.23
2018-06-09T01:24:48.899Z,24.72
2018-06-09T01:25:20.144Z,24.97
2018-06-09T01:25:51.459Z,24.47
2018-06-09T01:26:22.632Z,23.63
2018-06-09T01:26:53.800Z,25.43
2018-06-09T01:27:24.970Z,26.30
2018-06-09T01:27:56.243Z,26.20
2018-06-09T01:28:28.809Z,25.90
2018-06-09T01:29:00.044Z,25.57
2018-06-09T01:29:31.224Z,26.17
2018-06-09T01:30:02.450Z,26.00
2018-06-09T01:30:33.648Z,26.80
2018-06-09T01:31:04.825Z,26.90
2018-06-09T01:31:35.993Z,24.93
2018-06-09T01:32:07.212Z,25.80
2018-06-09T01:32:38.404Z,25.95
2018-06-09T01:33:09.668Z,25.60
2018-06-09T01:33:40.912Z,26.57
2018-06-09T01:34:12.197Z,25.60
2018-06-09T01:34:43.372Z,24.97
2018-06-09T01:35:14.590Z,24.82
2018-06-09T01:35:45.829Z,25.90
2018-06-09T01:36:17.062Z,26.13
2018-06-09T01:36:48.264Z,26.33
2018-06-09T01:37:19.436Z,25.10
2018-06-09T01:37:50.673Z,26.17
2018-06-09T01:38:21.860Z,25.82
2018-06-09T01:38:53.040Z,25.08
2018-06-09T01:39:24.309Z,26.00
2018-06-09T01:39:55.484Z,24.93
2018-06-09T01:40:26.709Z,26.60
2018-06-09T01:40:57.900Z,25.23
2018-06-09T01:41:29.126Z,26.30
2018-06-09T01:42:00.352Z,24.57
2018-06-09T01:42:31.532Z,26.13
2018-06-09T01:43:02.740Z,25.70
2018-06-09T01:43:33.926Z,27.17
2018-06-09T01:44:05.100Z,27.25
2018-06-09T01:44:36.285Z,26.15
2018-06-09T01:45:07.516Z,25.05
2018-06-09T01:45:38.696Z,25.72
2018-06-09T01:46:09.881Z,26.27
2018-06-09T01:46:41.107Z,25.27
2018-06-09T01:47:12.502Z,25.63
2018-06-09T01:47:43.737Z,24.97
2018-06-09T01:48:14.921Z,24.47
2018-06-09T01:48:46.132Z,26.90
2018-06-09T01:49:17.311Z,26.50
2018-06-09T01:49:48.487Z,25.10
2018-06-09T01:50:19.724Z,26.43
2018-06-09T01:50:50.909Z,25.88
2018-06-09T01:51:22.189Z,26.17
2018-06-09T01:51:53.373Z,25.95
2018-06-09T01:52:25.137Z,25.77
2018-06-09T01:52:56.392Z,26.12
2018-06-09T01:53:27.580Z,26.03
2018-06-09T01:53:58.799Z,26.40
2018-06-09T01:54:30.053Z,26.53
2018-06-09T01:55:01.229Z,25.43
2018-06-09T01:55:32.414Z,25.35
2018-06-09T01:56:03.589Z,26.77
2018-06-09T01:56:34.873Z,27.37
2018-06-09T01:57:06.105Z,26.83
2018-06-09T01:57:37.295Z,27.25
2018-06-09T01:58:08.473Z,27.50
2018-06-09T01:58:39.688Z,26.00
2018-06-09T01:59:10.866Z,27.45
2018-06-09T01:59:42.056Z,26.80
2018-06-09T02:00:13.233Z,25.27
2018-06-09T02:00:44.464Z,26.50
2018-06-09T02:01:15.700Z,26.48
2018-06-09T02:01:46.896Z,26.73
2018-06-09T02:02:18.089Z,26.87
2018-06-09T02:02:49.313Z,27.85
2018-06-09T02:03:20.535Z,27.27
2018-06-09T02:03:51.749Z,27.02
2018-06-09T02:04:22.920Z,24.80
2018-06-09T02:04:54.092Z,27.60
2018-06-09T02:05:25.326Z,26.48
2018-06-09T02:05:56.565Z,26.55
2018-06-09T02:06:27.744Z,26.90
2018-06-09T02:06:58.912Z,26.17
2018-06-09T02:07:30.097Z,26.90
2018-06-09T02:08:01.281Z,26.97
2018-06-09T02:08:32.488Z,27.82
2018-06-09T02:09:03.672Z,26.65
2018-06-09T02:09:34.888Z,26.12
2018-06-09T02:10:06.112Z,27.15
2018-06-09T02:10:37.392Z,26.52
2018-06-09T02:11:08.598Z,23.47
2018-06-09T02:11:39.779Z,26.12
2018-06-09T02:12:11.013Z,27.15
2018-06-09T02:12:42.197Z,26.65
2018-06-09T02:13:13.404Z,25.95
2018-06-09T02:13:44.578Z,25.88
2018-06-09T02:14:15.763Z,27.93
2018-06-09T02:14:46.994Z,26.68
2018-06-09T02:15:18.219Z,26.20
2018-06-09T02:15:51.252Z,27.62
2018-06-09T02:16:22.520Z,26.55
2018-06-09T02:16:55.232Z,27.07
2018-06-09T02:17:26.416Z,26.00
2018-06-09T02:17:57.607Z,25.72
2018-06-09T02:18:28.865Z,27.40
2018-06-09T02:19:00.116Z,27.37
2018-06-09T02:19:31.350Z,27.90
2018-06-09T02:20:02.589Z,27.50
2018-06-09T02:20:33.827Z,27.90
2018-06-09T02:21:05.013Z,26.20
2018-06-09T02:21:36.193Z,27.10
2018-06-09T02:22:07.385Z,27.27
2018-06-09T02:22:38.617Z,26.75
2018-06-09T02:23:09.815Z,27.30
2018-06-09T02:23:41.056Z,27.22
2018-06-09T02:24:12.233Z,28.00
2018-06-09T02:24:43.471Z,26.70
2018-06-09T02:25:14.666Z,26.50
2018-06-09T02:25:45.938Z,27.55
2018-06-09T02:26:17.120Z,27.17
2018-06-09T02:26:48.352Z,26.73
2018-06-09T02:27:19.533Z,27.27
2018-06-09T02:27:50.760Z,27.73
2018-06-09T02:28:21.943Z,27.45
2018-06-09T02:28:53.113Z,28.62
2018-06-09T02:29:24.320Z,27.22
2018-06-09T02:29:55.536Z,27.00
2018-06-09T02:30:26.766Z,28.02
2018-06-09T02:30:57.962Z,26.93
2018-06-09T02:31:29.142Z,27.85
2018-06-09T02:32:00.364Z,28.32
2018-06-09T02:32:31.544Z,27.67
2018-06-09T02:33:02.712Z,27.55
2018-06-09T02:33:33.895Z,28.40
2018-06-09T02:34:05.125Z,29.77
2018-06-09T02:34:36.373Z,28.98
2018-06-09T02:35:07.564Z,29.27
2018-06-09T02:35:38.753Z,29.05
2018-06-09T02:36:09.935Z,28.98
2018-06-09T02:36:41.168Z,29.12
2018-06-09T02:37:12.394Z,29.10
2018-06-09T02:37:43.568Z,27.50
2018-06-09T02:38:14.761Z,28.77
2018-06-09T02:38:45.938Z,28.27
2018-06-09T02:39:17.126Z,28.67
2018-06-09T02:39:48.343Z,29.55
2018-06-09T02:40:19.565Z,29.02
2018-06-09T02:40:50.762Z,29.15
2018-06-09T02:41:21.952Z,26.30
2018-06-09T02:41:53.131Z,28.07
2018-06-09T02:42:24.340Z,28.85
2018-06-09T02:42:55.521Z,29.42
2018-06-09T02:43:26.703Z,29.40
2018-06-09T02:43:57.933Z,28.75
2018-06-09T02:44:29.140Z,29.18
2018-06-09T02:45:00.357Z,28.35
2018-06-09T02:45:31.598Z,29.92
2018-06-09T02:46:02.783Z,29.60
2018-06-09T02:46:33.980Z,28.95
2018-06-09T02:47:05.725Z,28.55
2018-06-09T02:47:36.918Z,29.60
2018-06-09T02:48:08.112Z,29.67
2018-06-09T02:48:39.292Z,29.98
2018-06-09T02:49:10.640Z,29.90
2018-06-09T02:49:41.826Z,29.85
2018-06-09T02:50:13.061Z,29.57
2018-06-09T02:50:44.297Z,29.23
2018-06-09T02:51:15.529Z,30.27
2018-06-09T02:51:46.761Z,29.75
2018-06-09T02:52:17.961Z,30.15
2018-06-09T02:52:49.152Z,28.93
2018-06-09T02:53:20.390Z,29.45
2018-06-09T02:53:51.579Z,29.23
2018-06-09T02:54:22.796Z,29.90
2018-06-09T02:54:53.973Z,27.58
2018-06-09T02:55:25.185Z,27.27
2018-06-09T02:55:56.361Z,29.18
2018-06-09T02:56:27.536Z,29.23
2018-06-09T02:56:58.722Z,27.07
2018-06-09T02:57:29.990Z,27.90
2018-06-09T02:58:01.172Z,29.05
2018-06-09T02:58:32.421Z,29.32
2018-06-09T02:59:03.661Z,28.42
2018-06-09T02:59:34.850Z,29.67
2018-06-09T03:00:06.036Z,29.60
2018-06-09T03:00:37.264Z,29.42
2018-06-09T03:01:08.445Z,31.02
2018-06-09T03:01:39.669Z,28.75
2018-06-09T03:02:10.876Z,31.12
2018-06-09T03:02:42.105Z,30.52
2018-06-09T03:03:13.341Z,29.82
2018-06-09T03:03:44.582Z,31.07
2018-06-09T03:04:15.771Z,30.02
2018-06-09T03:04:47.049Z,30.30
2018-06-09T03:05:18.298Z,29.87
2018-06-09T03:05:49.486Z,31.70
2018-06-09T03:06:21.916Z,29.72
2018-06-09T03:06:53.168Z,30.30
2018-06-09T03:07:24.392Z,29.18
2018-06-09T03:07:55.584Z,29.67
2018-06-09T03:08:26.819Z,30.75
2018-06-09T03:08:58.070Z,28.83
2018-06-09T03:09:29.275Z,28.70
2018-06-09T03:10:00.464Z,29.60
2018-06-09T03:10:31.697Z,27.93
2018-06-09T03:11:02.968Z,30.45
2018-06-09T03:11:34.152Z,30.70
2018-06-09T03:12:05.353Z,30.65
2018-06-09T03:12:36.541Z,31.17
2018-06-09T03:13:07.754Z,30.62
2018-06-09T03:13:38.933Z,29.75
2018-06-09T03:14:10.120Z,30.20
2018-06-09T03:14:41.300Z,30.65
2018-06-09T03:15:12.581Z,29.52
2018-06-09T03:15:43.773Z,28.67
2018-06-09T03:16:14.961Z,30.25
2018-06-09T03:16:46.136Z,32.08
2018-06-09T03:17:17.410Z,30.57
2018-06-09T03:17:48.605Z,28.92
2018-06-09T03:18:20.875Z,26.07
2018-06-09T03:18:52.065Z,30.02
2018-06-09T03:19:23.285Z,29.72
2018-06-09T03:19:54.785Z,31.27
2018-06-09T03:20:26.006Z,29.00
2018-06-09T03:20:57.233Z,30.45
2018-06-09T03:21:28.445Z,29.80
2018-06-09T03:21:59.672Z,30.35
2018-06-09T03:22:30.844Z,29.67
2018-06-09T03:23:02.268Z,29.45
2018-06-09T03:23:33.501Z,29.57
2018-06-09T03:24:04.684Z,30.92
2018-06-09T03:24:35.874Z,29.30
2018-06-09T03:25:07.125Z,30.13
2018-06-09T03:25:38.336Z,31.07
2018-06-09T03:26:09.512Z,30.02
2018-06-09T03:26:40.691Z,29.37
2018-06-09T03:27:11.916Z,29.77
2018-06-09T03:27:43.141Z,30.50
2018-06-09T03:28:14.386Z,29.95
2018-06-09T03:28:45.596Z,31.33
2018-06-09T03:29:16.799Z,30.88
2018-06-09T03:29:47.992Z,30.82
2018-06-09T03:30:19.204Z,30.02
2018-06-09T03:30:50.422Z,31.77
2018-06-09T03:31:21.609Z,32.00
2018-06-09T03:31:52.797Z,31.45
2018-06-09T03:32:23.983Z,29.50
2018-06-09T03:32:55.257Z,30.63
2018-06-09T03:33:26.489Z,29.97
2018-06-09T03:33:57.668Z,30.17
2018-06-09T03:34:28.846Z,29.12
2018-06-09T03:35:00.036Z,32.17
2018-06-09T03:35:31.222Z,31.00
2018-06-09T03:36:02.449Z,30.67
2018-06-09T03:36:33.620Z,31.13
2018-06-09T03:37:04.800Z,31.75
2018-06-09T03:37:36.009Z,29.63
2018-06-09T03:38:07.183Z,31.62
2018-06-09T03:38:38.363Z,33.02
2018-06-09T03:39:09.560Z,31.53
2018-06-09T03:39:40.795Z,31.77
2018-06-09T03:40:11.985Z,30.88
2018-06-09T03:40:43.470Z,31.13
2018-06-09T03:41:14.649Z,30.17
2018-06-09T03:41:45.830Z,29.97
2018-06-09T03:42:17.056Z,29.10
2018-06-09T03:42:48.270Z,29.97
2018-06-09T03:43:19.520Z,29.50
2018-06-09T03:43:50.670Z,31.52
2018-06-09T03:44:21.892Z,30.93
2018-06-09T03:44:53.075Z,31.57
2018-06-09T03:45:24.252Z,30.60
2018-06-09T03:45:55.467Z,31.17
2018-06-09T03:46:26.701Z,32.60
2018-06-09T03:46:57.887Z,31.20
2018-06-09T03:47:29.118Z,31.10
2018-06-09T03:48:00.351Z,31.27
2018-06-09T03:48:31.521Z,33.80
2018-06-09T03:49:02.710Z,32.13
2018-06-09T03:49:33.952Z,31.33
2018-06-09T03:50:05.160Z,30.87
2018-06-09T03:50:36.383Z,31.87
2018-06-09T03:51:07.654Z,30.30
2018-06-09T03:51:38.842Z,31.67
2018-06-09T03:52:10.020Z,32.87
2018-06-09T03:52:41.251Z,31.20
2018-06-09T03:53:12.541Z,32.40
2018-06-09T03:53:43.729Z,30.10
2018-06-09T03:54:14.956Z,33.53
2018-06-09T03:54:46.140Z,32.40
2018-06-09T03:55:17.377Z,30.23
2018-06-09T03:55:48.562Z,32.57
2018-06-09T03:56:19.768Z,30.47
2018-06-09T03:56:50.992Z,31.85
2018-06-09T03:57:22.188Z,30.62
2018-06-09T03:57:53.372Z,30.92
2018-06-09T03:58:24.641Z,30.90
2018-06-09T03:58:55.922Z,30.70
2018-06-09T03:59:27.165Z,31.87
2018-06-09T03:59:58.366Z,31.67
2018-06-09T04:00:29.533Z,30.50
2018-06-09T04:01:00.716Z,32.10
2018-06-09T04:01:31.900Z,30.97
2018-06-09T04:02:03.065Z,30.73
2018-06-09T04:02:34.243Z,32.47
2018-06-09T04:03:05.420Z,30.53
2018-06-09T04:03:36.645Z,31.83
2018-06-09T04:04:07.865Z,30.50
2018-06-09T04:04:39.059Z,31.70
2018-06-09T04:05:10.232Z,31.27
2018-06-09T04:05:41.413Z,32.15
2018-06-09T04:06:12.593Z,31.68
2018-06-09T04:06:43.777Z,31.63
2018-06-09T04:07:14.945Z,30.27
2018-06-09T04:07:46.127Z,31.73
2018-06-09T04:08:17.304Z,31.03
2018-06-09T04:08:48.548Z,31.37
2018-06-09T04:09:19.773Z,31.83
2018-06-09T04:09:50.954Z,30.93
2018-06-09T04:10:22.130Z,30.90
2018-06-09T04:10:53.304Z,30.03
2018-06-09T04:11:24.472Z,30.70
2018-06-09T04:11:55.649Z,30.50
2018-06-09T04:12:26.829Z,31.50
2018-06-09T04:12:58.061Z,30.60
2018-06-09T04:13:29.294Z,29.27
2018-06-09T04:14:00.567Z,30.97
2018-06-09T04:14:31.841Z,30.53
2018-06-09T04:15:03.028Z,30.57
2018-06-09T04:15:34.209Z,30.80
2018-06-09T04:16:05.420Z,27.67
2018-06-09T04:16:36.600Z,30.10
2018-06-09T04:17:07.780Z,30.33
2018-06-09T04:17:38.965Z,27.77
2018-06-09T04:18:10.201Z,30.13
2018-06-09T04:18:41.385Z,31.23
2018-06-09T04:19:12.553Z,30.00
2018-06-09T04:19:43.767Z,30.33
2018-06-09T04:20:14.967Z,31.73
2018-06-09T04:20:46.195Z,28.80
2018-06-09T04:21:17.409Z,29.00
2018-06-09T04:21:48.636Z,30.97
2018-06-09T04:22:19.800Z,31.80
2018-06-09T04:22:50.976Z,30.00
2018-06-09T04:23:22.152Z,31.17
2018-06-09T04:23:53.376Z,31.07
2018-06-09T04:24:24.561Z,30.57
2018-06-09T04:24:55.729Z,29.77
2018-06-09T04:25:26.953Z,32.03
2018-06-09T04:25:58.207Z,30.97
2018-06-09T04:26:29.388Z,29.60
2018-06-09T04:27:00.658Z,30.07
2018-06-09T04:27:31.840Z,29.47
2018-06-09T04:28:03.058Z,29.13
2018-06-09T04:28:34.303Z,29.17
2018-06-09T04:29:05.488Z,29.23
2018-06-09T04:29:36.657Z,28.70
2018-06-09T04:30:07.836Z,27.33
2018-06-09T04:30:39.053Z,28.90
2018-06-09T04:31:10.235Z,26.93
2018-06-09T04:31:41.414Z,28.43
2018-06-09T04:32:12.621Z,30.67
2018-06-09T04:32:43.846Z,28.23
2018-06-09T04:33:15.077Z,29.57
2018-06-09T04:33:46.313Z,31.00
2018-06-09T04:34:17.522Z,30.60
2018-06-09T04:34:48.696Z,31.27
2018-06-09T04:35:19.870Z,29.43
2018-06-09T04:35:51.090Z,31.53
2018-06-09T04:36:22.353Z,31.43
2018-06-09T04:36:53.536Z,29.83
2018-06-09T04:37:24.712Z,31.13
2018-06-09T04:37:55.958Z,32.50
2018-06-09T04:38:27.187Z,32.37
2018-06-09T04:38:58.445Z,32.47
2018-06-09T04:39:29.638Z,33.03
2018-06-09T04:40:00.890Z,32.43
2018-06-09T04:40:32.175Z,33.13
2018-06-09T04:41:03.355Z,32.70
2018-06-09T04:41:34.532Z,33.70
2018-06-09T04:42:05.764Z,31.27
2018-06-09T04:42:36.948Z,32.23
2018-06-09T04:43:08.132Z,33.47
2018-06-09T04:43:39.304Z,31.50
2018-06-09T04:44:10.480Z,32.93
2018-06-09T04:44:41.661Z,33.10
2018-06-09T04:45:12.842Z,34.27
2018-06-09T04:45:44.049Z,32.30
2018-06-09T04:46:15.236Z,34.03
2018-06-09T04:46:46.461Z,32.47
2018-06-09T04:47:17.633Z,32.10
2018-06-09T04:47:48.853Z,32.53
2018-06-09T04:48:20.093Z,31.60
2018-06-09T04:48:51.351Z,31.93
2018-06-09T04:49:22.585Z,31.80
2018-06-09T04:49:53.841Z,32.10
2018-06-09T04:50:25.020Z,30.73
2018-06-09T04:50:56.201Z,31.60
2018-06-09T04:51:27.418Z,31.80
2018-06-09T04:51:58.632Z,27.80
2018-06-09T04:52:29.819Z,30.97
2018-06-09T04:53:01.004Z,32.37
2018-06-09T04:53:32.181Z,30.10
2018-06-09T04:54:03.483Z,32.63
2018-06-09T04:54:34.684Z,31.87
2018-06-09T04:55:05.856Z,32.00
2018-06-09T04:55:37.041Z,31.10
2018-06-09T04:56:08.268Z,32.53
2018-06-09T04:56:39.478Z,31.07
2018-06-09T04:57:10.648Z,32.20
2018-06-09T04:57:41.868Z,31.57
2018-06-09T04:58:13.076Z,32.83
2018-06-09T04:58:44.302Z,33.43
2018-06-09T04:59:15.505Z,32.17
2018-06-09T04:59:46.720Z,32.40
2018-06-09T05:00:17.960Z,33.60
2018-06-09T05:00:49.720Z,32.23
2018-06-09T05:01:20.959Z,34.47
2018-06-09T05:01:52.189Z,33.50
2018-06-09T05:02:23.481Z,33.10
2018-06-09T05:02:54.696Z,32.47
2018-06-09T05:03:25.885Z,31.97
2018-06-09T05:03:57.120Z,33.10
2018-06-09T05:04:28.328Z,33.03
2018-06-09T05:04:59.505Z,31.20
2018-06-09T05:05:30.781Z,30.17
2018-06-09T05:06:01.987Z,32.67
2018-06-09T05:06:33.250Z,31.77
2018-06-09T05:07:04.485Z,31.17
2018-06-09T05:07:35.709Z,32.30
2018-06-09T05:08:06.984Z,30.00
2018-06-09T05:08:38.177Z,31.63
2018-06-09T05:09:09.448Z,32.67
2018-06-09T05:09:40.676Z,33.80
2018-06-09T05:10:11.848Z,33.20
2018-06-09T05:10:43.033Z,33.60
2018-06-09T05:11:14.217Z,30.60
2018-06-09T05:11:45.398Z,31.30
2018-06-09T05:12:16.637Z,29.23
2018-06-09T05:12:47.880Z,31.13
2018-06-09T05:13:19.072Z,33.37
2018-06-09T05:13:50.240Z,33.10
2018-06-09T05:14:21.498Z,35.27
2018-06-09T05:14:52.786Z,35.07
2018-06-09T05:15:23.966Z,34.53
2018-06-09T05:15:55.147Z,34.80
2018-06-09T05:16:26.378Z,35.93
2018-06-09T05:16:57.623Z,35.77
2018-06-09T05:17:28.848Z,36.77
2018-06-09T05:18:00.031Z,35.30
2018-06-09T05:18:31.214Z,36.47
2018-06-09T05:19:02.388Z,35.10
2018-06-09T05:19:33.600Z,36.03
2018-06-09T05:20:04.781Z,35.77
2018-06-09T05:20:36.005Z,36.77
2018-06-09T05:21:07.183Z,35.33
2018-06-09T05:21:38.356Z,36.37
2018-06-09T05:22:09.526Z,36.30
2018-06-09T05:22:40.702Z,35.37
2018-06-09T05:23:11.928Z,36.10
2018-06-09T05:23:43.114Z,36.37
2018-06-09T05:24:14.325Z,37.07
2018-06-09T05:24:45.569Z,34.10
2018-06-09T05:25:16.762Z,35.27
2018-06-09T05:25:47.985Z,35.87
2018-06-09T05:26:19.224Z,35.77
2018-06-09T05:26:50.381Z,36.13
2018-06-09T05:27:21.609Z,35.93
2018-06-09T05:27:52.874Z,35.27
2018-06-09T05:28:24.135Z,35.33
2018-06-09T05:28:55.315Z,35.03
2018-06-09T05:29:26.556Z,37.50
2018-06-09T05:29:57.726Z,36.03
2018-06-09T05:30:28.955Z,38.07
2018-06-09T05:31:00.184Z,39.20
2018-06-09T05:31:31.428Z,41.77
2018-06-09T05:32:02.670Z,40.67
2018-06-09T05:32:33.849Z,39.73
2018-06-09T05:33:05.068Z,38.80
2018-06-09T05:33:36.297Z,39.60
2018-06-09T05:34:07.484Z,38.90
2018-06-09T05:34:38.758Z,38.10
2018-06-09T05:35:09.944Z,37.13
2018-06-09T05:35:41.131Z,35.93
2018-06-09T05:36:12.305Z,36.70
2018-06-09T05:36:43.534Z,36.07
2018-06-09T05:37:14.716Z,37.87
2018-06-09T05:37:45.944Z,38.97
2018-06-09T05:38:17.176Z,39.80
2018-06-09T05:38:48.373Z,38.83
2018-06-09T05:39:19.614Z,37.53
2018-06-09T05:39:50.889Z,37.53
2018-06-09T05:40:22.072Z,38.20
2018-06-09T05:40:53.253Z,38.40
2018-06-09T05:41:24.430Z,37.60
2018-06-09T05:41:55.604Z,38.03
2018-06-09T05:42:26.780Z,37.00
2018-06-09T05:42:58.006Z,38.20
2018-06-09T05:43:29.257Z,32.47
2018-06-09T05:44:00.444Z,35.67
2018-06-09T05:44:31.616Z,35.47
2018-06-09T05:45:02.860Z,32.17
2018-06-09T05:45:34.028Z,36.23
2018-06-09T05:46:05.201Z,36.63
2018-06-09T05:46:36.386Z,38.97
2018-06-09T05:47:07.568Z,35.67
2018-06-09T05:47:38.797Z,37.97
2018-06-09T05:48:09.989Z,39.07
2018-06-09T05:48:41.176Z,36.43
2018-06-09T05:49:12.415Z,38.53
2018-06-09T05:49:43.594Z,37.77
2018-06-09T05:50:14.870Z,38.03
2018-06-09T05:50:46.065Z,36.40
2018-06-09T05:51:17.236Z,36.03
2018-06-09T05:51:48.414Z,37.80
2018-06-09T05:52:19.641Z,38.97
2018-06-09T05:52:50.824Z,38.80
2018-06-09T05:53:22.015Z,38.47
2018-06-09T05:53:53.249Z,37.17
2018-06-09T05:54:24.431Z,38.77
2018-06-09T05:54:55.610Z,39.63
2018-06-09T05:55:26.833Z,38.40
2018-06-09T05:55:58.067Z,36.33
2018-06-09T05:56:29.344Z,39.53
2018-06-09T05:57:00.532Z,38.23
2018-06-09T05:57:31.714Z,39.67
2018-06-09T05:58:02.934Z,38.33
2018-06-09T05:58:34.125Z,37.17
2018-06-09T05:59:05.300Z,37.27
2018-06-09T05:59:36.480Z,37.70
2018-06-09T06:00:07.660Z,37.20
2018-06-09T06:00:38.929Z,37.10
2018-06-09T06:01:10.116Z,39.00
2018-06-09T06:01:41.337Z,39.97
2018-06-09T06:02:12.524Z,38.70
2018-06-09T06:02:43.767Z,38.97
2018-06-09T06:03:15.001Z,36.40
2018-06-09T06:03:46.222Z,36.60
2018-06-09T06:04:17.411Z,33.57
2018-06-09T06:04:48.647Z,36.43
2018-06-09T06:05:19.884Z,37.10
2018-06-09T06:05:51.071Z,35.53
2018-06-09T06:06:22.306Z,35.73
2018-06-09T06:06:53.550Z,35.47
2018-06-09T06:07:24.832Z,35.97
2018-06-09T06:07:56.022Z,37.37
2018-06-09T06:08:27.277Z,35.93
2018-06-09T06:08:58.457Z,36.87
2018-06-09T06:09:29.707Z,36.13
2018-06-09T06:10:00.896Z,34.87
2018-06-09T06:10:32.127Z,36.37
2018-06-09T06:11:03.313Z,35.50
2018-06-09T06:11:34.509Z,34.87
2018-06-09T06:12:05.724Z,33.87
2018-06-09T06:12:36.948Z,32.70
2018-06-09T06:13:08.184Z,33.83
2018-06-09T06:13:39.369Z,33.23
2018-06-09T06:14:10.593Z,35.57
2018-06-09T06:14:41.824Z,34.23
2018-06-09T06:15:13.008Z,33.17
2018-06-09T06:15:44.196Z,33.80
2018-06-09T06:16:15.432Z,33.20
2018-06-09T06:16:46.680Z,33.43
2018-06-09T06:17:17.953Z,32.50
2018-06-09T06:17:49.190Z,33.97
2018-06-09T06:18:20.385Z,32.70
2018-06-09T06:18:51.587Z,33.87
2018-06-09T06:19:22.881Z,32.37
2018-06-09T06:19:54.069Z,32.17
2018-06-09T06:20:25.247Z,32.80
2018-06-09T06:20:56.428Z,33.03
2018-06-09T06:21:27.612Z,33.93
2018-06-09T06:21:58.846Z,34.03
2018-06-09T06:22:30.031Z,33.63
2018-06-09T06:23:01.213Z,32.33
2018-06-09T06:23:32.448Z,32.73
2018-06-09T06:24:03.693Z,32.73
2018-06-09T06:24:34.970Z,30.20
2018-06-09T06:25:06.240Z,31.97
2018-06-09T06:25:37.486Z,33.43
2018-06-09T06:26:08.680Z,33.33
2018-06-09T06:26:39.849Z,33.97
2018-06-09T06:27:11.042Z,33.70
2018-06-09T06:27:42.225Z,34.00
2018-06-09T06:28:13.409Z,33.17
2018-06-09T06:28:44.666Z,34.33
2018-06-09T06:29:15.848Z,33.40
2018-06-09T06:29:47.024Z,33.47
2018-06-09T06:30:18.197Z,30.13
2018-06-09T06:30:49.377Z,29.23
2018-06-09T06:31:20.557Z,31.00
2018-06-09T06:31:51.745Z,32.03
2018-06-09T06:32:22.972Z,30.47
2018-06-09T06:32:54.221Z,31.27
2018-06-09T06:33:25.412Z,31.37
2018-06-09T06:33:56.718Z,31.23
2018-06-09T06:34:27.957Z,32.70
2018-06-09T06:34:59.190Z,31.53
2018-06-09T06:35:30.369Z,30.67
2018-06-09T06:36:01.549Z,30.27
2018-06-09T06:36:32.777Z,30.63
2018-06-09T06:37:03.969Z,32.67
2018-06-09T06:37:35.201Z,31.30
2018-06-09T06:38:06.430Z,31.80
2018-06-09T06:38:37.624Z,31.20
2018-06-09T06:39:08.832Z,30.17
2018-06-09T06:39:40.061Z,30.60
2018-06-09T06:40:11.245Z,30.33
2018-06-09T06:40:42.521Z,31.70
2018-06-09T06:41:13.797Z,32.17
2018-06-09T06:41:45.025Z,32.20
2018-06-09T06:42:16.266Z,30.17
2018-06-09T06:42:47.551Z,33.27